sensor_id;sensor_type;location;lat;lon;timestamp;temperature;humidity
70734;DHT22;58320;48.804;9.252;2023-05-09T00:00:07;14.10;92.80
70734;DHT22;58320;48.804;9.252;2023-05-09T00:02:36;14.10;93.00
70734;DHT22;58320;48.804;9.252;2023-05-09T00:05:04;14.10;92.70
70734;DHT22;58320;48.804;9.252;2023-05-09T00:07:32;14.10;92.50
70734;DHT22;58320;48.804;9.252;2023-05-09T00:09:59;14.10;92.90
70734;DHT22;58320;48.804;9.252;2023-05-09T00:12:26;14.00;93.00
70734;DHT22;58320;48.804;9.252;2023-05-09T00:14:53;14.00;93.50
70734;DHT22;58320;48.804;9.252;2023-05-09T00:17:24;13.90;93.30
70734;DHT22;58320;48.804;9.252;2023-05-09T00:19:50;13.90;93.20
70734;DHT22;58320;48.804;9.252;2023-05-09T00:22:17;13.80;93.00
70734;DHT22;58320;48.804;9.252;2023-05-09T00:24:48;13.80;93.30
70734;DHT22;58320;48.804;9.252;2023-05-09T00:27:15;13.80;93.50
70734;DHT22;58320;48.804;9.252;2023-05-09T00:29:41;13.70;93.80
70734;DHT22;58320;48.804;9.252;2023-05-09T00:32:07;13.60;93.90
70734;DHT22;58320;48.804;9.252;2023-05-09T00:34:33;13.60;94.20
70734;DHT22;58320;48.804;9.252;2023-05-09T00:36:59;13.50;95.60
70734;DHT22;58320;48.804;9.252;2023-05-09T00:39:25;13.50;95.80
70734;DHT22;58320;48.804;9.252;2023-05-09T00:41:51;13.40;95.80
70734;DHT22;58320;48.804;9.252;2023-05-09T00:44:17;13.40;95.60
70734;DHT22;58320;48.804;9.252;2023-05-09T00:46:43;13.30;95.90
70734;DHT22;58320;48.804;9.252;2023-05-09T00:49:09;13.20;96.30
70734;DHT22;58320;48.804;9.252;2023-05-09T00:51:38;13.20;96.20
70734;DHT22;58320;48.804;9.252;2023-05-09T00:54:05;13.20;96.10
70734;DHT22;58320;48.804;9.252;2023-05-09T00:56:31;13.10;96.10
70734;DHT22;58320;48.804;9.252;2023-05-09T00:58:57;13.10;96.00
70734;DHT22;58320;48.804;9.252;2023-05-09T01:01:24;13.00;96.10
70734;DHT22;58320;48.804;9.252;2023-05-09T01:03:50;13.00;96.30
70734;DHT22;58320;48.804;9.252;2023-05-09T01:06:26;12.90;96.50
70734;DHT22;58320;48.804;9.252;2023-05-09T01:15:05;12.70;98.10
70734;DHT22;58320;48.804;9.252;2023-05-09T01:18:11;12.60;98.20
70734;DHT22;58320;48.804;9.252;2023-05-09T01:20:52;12.60;98.80
70734;DHT22;58320;48.804;9.252;2023-05-09T01:29:33;12.60;98.90
70734;DHT22;58320;48.804;9.252;2023-05-09T01:32:09;12.60;98.90
70734;DHT22;58320;48.804;9.252;2023-05-09T01:34:51;12.60;98.60
70734;DHT22;58320;48.804;9.252;2023-05-09T01:37:23;12.50;98.50
70734;DHT22;58320;48.804;9.252;2023-05-09T01:39:56;12.50;98.50
70734;DHT22;58320;48.804;9.252;2023-05-09T01:42:32;12.50;98.50
70734;DHT22;58320;48.804;9.252;2023-05-09T01:45:03;12.40;98.70
70734;DHT22;58320;48.804;9.252;2023-05-09T01:47:30;12.40;98.80
70734;DHT22;58320;48.804;9.252;2023-05-09T01:49:56;12.40;99.00
70734;DHT22;58320;48.804;9.252;2023-05-09T01:52:23;12.40;99.10
70734;DHT22;58320;48.804;9.252;2023-05-09T01:54:50;12.40;99.30
70734;DHT22;58320;48.804;9.252;2023-05-09T01:57:17;12.50;99.90
70734;DHT22;58320;48.804;9.252;2023-05-09T01:59:44;12.40;99.90
70734;DHT22;58320;48.804;9.252;2023-05-09T02:02:11;12.40;99.90
70734;DHT22;58320;48.804;9.252;2023-05-09T02:04:37;12.40;99.90
70734;DHT22;58320;48.804;9.252;2023-05-09T02:07:06;12.50;99.90
70734;DHT22;58320;48.804;9.252;2023-05-09T02:09:32;12.50;99.90
70734;DHT22;58320;48.804;9.252;2023-05-09T02:11:58;12.50;99.90
70734;DHT22;58320;48.804;9.252;2023-05-09T02:14:24;12.50;99.70
70734;DHT22;58320;48.804;9.252;2023-05-09T02:16:50;12.50;99.40
70734;DHT22;58320;48.804;9.252;2023-05-09T02:19:16;12.50;99.50
70734;DHT22;58320;48.804;9.252;2023-05-09T02:21:42;12.50;99.50
70734;DHT22;58320;48.804;9.252;2023-05-09T02:24:08;12.50;99.60
70734;DHT22;58320;48.804;9.252;2023-05-09T02:26:34;12.50;99.70
70734;DHT22;58320;48.804;9.252;2023-05-09T02:29:02;12.60;99.80
70734;DHT22;58320;48.804;9.252;2023-05-09T02:31:30;12.60;99.60
70734;DHT22;58320;48.804;9.252;2023-05-09T02:33:58;12.60;99.70
70734;DHT22;58320;48.804;9.252;2023-05-09T02:36:24;12.70;99.80
70734;DHT22;58320;48.804;9.252;2023-05-09T02:38:50;12.70;99.30
70734;DHT22;58320;48.804;9.252;2023-05-09T02:41:16;12.80;98.90
70734;DHT22;58320;48.804;9.252;2023-05-09T02:43:42;12.80;98.40
70734;DHT22;58320;48.804;9.252;2023-05-09T02:46:09;12.80;98.00
70734;DHT22;58320;48.804;9.252;2023-05-09T02:48:35;12.90;97.90
70734;DHT22;58320;48.804;9.252;2023-05-09T02:51:01;12.90;97.90
70734;DHT22;58320;48.804;9.252;2023-05-09T02:53:27;12.90;97.90
70734;DHT22;58320;48.804;9.252;2023-05-09T02:55:53;12.90;98.00
70734;DHT22;58320;48.804;9.252;2023-05-09T02:58:19;12.90;98.00
70734;DHT22;58320;48.804;9.252;2023-05-09T03:00:45;12.90;98.10
70734;DHT22;58320;48.804;9.252;2023-05-09T03:03:11;12.90;98.10
70734;DHT22;58320;48.804;9.252;2023-05-09T03:05:37;12.90;98.10
70734;DHT22;58320;48.804;9.252;2023-05-09T03:08:03;12.90;98.10
70734;DHT22;58320;48.804;9.252;2023-05-09T03:10:29;12.90;98.20
70734;DHT22;58320;48.804;9.252;2023-05-09T03:12:55;12.90;98.10
70734;DHT22;58320;48.804;9.252;2023-05-09T03:15:21;12.90;97.90
70734;DHT22;58320;48.804;9.252;2023-05-09T03:17:47;12.90;97.40
70734;DHT22;58320;48.804;9.252;2023-05-09T03:20:12;12.90;97.50
70734;DHT22;58320;48.804;9.252;2023-05-09T03:22:39;12.80;97.70
70734;DHT22;58320;48.804;9.252;2023-05-09T03:25:05;12.80;97.90
70734;DHT22;58320;48.804;9.252;2023-05-09T03:27:31;12.80;98.00
70734;DHT22;58320;48.804;9.252;2023-05-09T03:29:57;12.80;98.20
70734;DHT22;58320;48.804;9.252;2023-05-09T03:32:23;12.80;98.10
70734;DHT22;58320;48.804;9.252;2023-05-09T03:34:48;12.80;98.40
70734;DHT22;58320;48.804;9.252;2023-05-09T03:37:14;12.80;98.40
70734;DHT22;58320;48.804;9.252;2023-05-09T03:39:40;12.80;98.00
70734;DHT22;58320;48.804;9.252;2023-05-09T03:42:06;12.80;98.00
70734;DHT22;58320;48.804;9.252;2023-05-09T03:44:31;12.80;98.00
70734;DHT22;58320;48.804;9.252;2023-05-09T03:46:57;12.80;98.10
70734;DHT22;58320;48.804;9.252;2023-05-09T03:49:23;12.80;98.10
70734;DHT22;58320;48.804;9.252;2023-05-09T03:51:49;12.80;98.10
70734;DHT22;58320;48.804;9.252;2023-05-09T03:54:14;12.80;97.90
70734;DHT22;58320;48.804;9.252;2023-05-09T03:56:40;12.80;97.80
70734;DHT22;58320;48.804;9.252;2023-05-09T03:59:06;12.80;97.80
70734;DHT22;58320;48.804;9.252;2023-05-09T04:01:32;12.70;97.70
70734;DHT22;58320;48.804;9.252;2023-05-09T04:03:58;12.70;97.80
70734;DHT22;58320;48.804;9.252;2023-05-09T04:06:24;12.70;97.80
70734;DHT22;58320;48.804;9.252;2023-05-09T04:08:49;12.70;97.80
70734;DHT22;58320;48.804;9.252;2023-05-09T04:11:15;12.70;97.80
70734;DHT22;58320;48.804;9.252;2023-05-09T04:13:41;12.70;97.70
70734;DHT22;58320;48.804;9.252;2023-05-09T04:16:07;12.70;97.50
70734;DHT22;58320;48.804;9.252;2023-05-09T04:18:32;12.70;97.70
70734;DHT22;58320;48.804;9.252;2023-05-09T04:20:59;12.70;97.50
70734;DHT22;58320;48.804;9.252;2023-05-09T04:23:24;12.70;97.60
70734;DHT22;58320;48.804;9.252;2023-05-09T04:25:50;12.80;97.50
70734;DHT22;58320;48.804;9.252;2023-05-09T04:28:18;12.80;97.40
70734;DHT22;58320;48.804;9.252;2023-05-09T04:30:44;12.80;97.20
70734;DHT22;58320;48.804;9.252;2023-05-09T04:33:10;12.90;96.40
70734;DHT22;58320;48.804;9.252;2023-05-09T04:35:37;12.90;96.10
70734;DHT22;58320;48.804;9.252;2023-05-09T04:38:02;12.90;96.00
70734;DHT22;58320;48.804;9.252;2023-05-09T04:40:29;13.00;96.10
70734;DHT22;58320;48.804;9.252;2023-05-09T04:42:55;13.00;95.50
70734;DHT22;58320;48.804;9.252;2023-05-09T04:45:21;13.10;95.40
70734;DHT22;58320;48.804;9.252;2023-05-09T04:47:47;13.10;95.20
70734;DHT22;58320;48.804;9.252;2023-05-09T04:50:13;13.20;95.20
70734;DHT22;58320;48.804;9.252;2023-05-09T04:52:39;13.30;94.50
70734;DHT22;58320;48.804;9.252;2023-05-09T04:55:05;13.40;94.50
70734;DHT22;58320;48.804;9.252;2023-05-09T04:57:31;13.50;94.30
70734;DHT22;58320;48.804;9.252;2023-05-09T04:59:57;13.70;94.00
70734;DHT22;58320;48.804;9.252;2023-05-09T05:02:22;13.80;93.00
70734;DHT22;58320;48.804;9.252;2023-05-09T05:04:49;13.90;91.40
70734;DHT22;58320;48.804;9.252;2023-05-09T05:07:16;13.90;91.10
70734;DHT22;58320;48.804;9.252;2023-05-09T05:09:41;14.00;91.10
70734;DHT22;58320;48.804;9.252;2023-05-09T05:12:07;14.20;91.20
70734;DHT22;58320;48.804;9.252;2023-05-09T05:14:33;14.30;90.90
70734;DHT22;58320;48.804;9.252;2023-05-09T05:16:59;14.40;90.50
70734;DHT22;58320;48.804;9.252;2023-05-09T05:19:25;14.50;89.90
70734;DHT22;58320;48.804;9.252;2023-05-09T05:21:51;14.70;89.60
70734;DHT22;58320;48.804;9.252;2023-05-09T05:24:16;14.80;89.10
70734;DHT22;58320;48.804;9.252;2023-05-09T05:26:42;14.90;88.60
70734;DHT22;58320;48.804;9.252;2023-05-09T05:29:08;15.10;86.00
70734;DHT22;58320;48.804;9.252;2023-05-09T05:31:49;15.20;84.30
70734;DHT22;58320;48.804;9.252;2023-05-09T05:34:15;15.30;84.60
70734;DHT22;58320;48.804;9.252;2023-05-09T05:36:41;15.30;84.20
70734;DHT22;58320;48.804;9.252;2023-05-09T05:39:07;15.50;84.20
70734;DHT22;58320;48.804;9.252;2023-05-09T05:41:33;15.60;83.00
70734;DHT22;58320;48.804;9.252;2023-05-09T05:43:59;15.70;82.80
70734;DHT22;58320;48.804;9.252;2023-05-09T05:46:24;15.80;83.60
70734;DHT22;58320;48.804;9.252;2023-05-09T05:48:50;15.80;80.90
70734;DHT22;58320;48.804;9.252;2023-05-09T05:51:16;15.80;81.20
70734;DHT22;58320;48.804;9.252;2023-05-09T05:53:42;16.00;80.40
70734;DHT22;58320;48.804;9.252;2023-05-09T05:56:07;16.00;80.20
70734;DHT22;58320;48.804;9.252;2023-05-09T05:58:33;16.00;79.90
70734;DHT22;58320;48.804;9.252;2023-05-09T06:00:59;15.90;81.00
70734;DHT22;58320;48.804;9.252;2023-05-09T06:03:25;15.80;80.50
70734;DHT22;58320;48.804;9.252;2023-05-09T06:05:51;15.70;80.10
70734;DHT22;58320;48.804;9.252;2023-05-09T06:08:17;15.70;80.20
70734;DHT22;58320;48.804;9.252;2023-05-09T06:10:43;15.70;79.70
70734;DHT22;58320;48.804;9.252;2023-05-09T06:13:09;15.70;80.00
70734;DHT22;58320;48.804;9.252;2023-05-09T06:15:34;15.70;80.00
70734;DHT22;58320;48.804;9.252;2023-05-09T06:18:00;15.70;79.90
70734;DHT22;58320;48.804;9.252;2023-05-09T06:20:26;15.90;78.70
70734;DHT22;58320;48.804;9.252;2023-05-09T06:22:52;15.90;78.10
70734;DHT22;58320;48.804;9.252;2023-05-09T06:25:18;16.00;79.00
70734;DHT22;58320;48.804;9.252;2023-05-09T06:27:43;16.20;76.00
70734;DHT22;58320;48.804;9.252;2023-05-09T06:30:10;16.30;77.20
70734;DHT22;58320;48.804;9.252;2023-05-09T06:32:36;16.60;75.20
70734;DHT22;58320;48.804;9.252;2023-05-09T06:35:01;16.70;73.60
70734;DHT22;58320;48.804;9.252;2023-05-09T06:37:32;16.40;74.70
70734;DHT22;58320;48.804;9.252;2023-05-09T06:39:58;16.20;75.50
70734;DHT22;58320;48.804;9.252;2023-05-09T06:42:24;16.30;77.20
70734;DHT22;58320;48.804;9.252;2023-05-09T06:44:49;16.70;76.10
70734;DHT22;58320;48.804;9.252;2023-05-09T06:47:15;16.60;73.60
70734;DHT22;58320;48.804;9.252;2023-05-09T06:49:41;16.40;73.90
70734;DHT22;58320;48.804;9.252;2023-05-09T06:52:07;16.30;75.30
70734;DHT22;58320;48.804;9.252;2023-05-09T06:54:33;16.30;76.10
70734;DHT22;58320;48.804;9.252;2023-05-09T06:56:59;16.20;76.00
70734;DHT22;58320;48.804;9.252;2023-05-09T06:59:25;16.10;76.90
70734;DHT22;58320;48.804;9.252;2023-05-09T07:01:51;16.30;76.50
70734;DHT22;58320;48.804;9.252;2023-05-09T07:04:17;16.50;75.40
70734;DHT22;58320;48.804;9.252;2023-05-09T07:06:43;16.80;74.10
70734;DHT22;58320;48.804;9.252;2023-05-09T07:09:08;17.10;71.80
70734;DHT22;58320;48.804;9.252;2023-05-09T07:11:35;17.30;70.30
70734;DHT22;58320;48.804;9.252;2023-05-09T07:14:01;17.30;68.90
70734;DHT22;58320;48.804;9.252;2023-05-09T07:16:27;17.40;69.50
70734;DHT22;58320;48.804;9.252;2023-05-09T07:18:54;17.50;69.70
70734;DHT22;58320;48.804;9.252;2023-05-09T07:21:20;18.00;68.20
70734;DHT22;58320;48.804;9.252;2023-05-09T07:23:46;18.10;66.60
70734;DHT22;58320;48.804;9.252;2023-05-09T07:26:11;18.10;67.80
70734;DHT22;58320;48.804;9.252;2023-05-09T07:28:37;18.40;67.20
70734;DHT22;58320;48.804;9.252;2023-05-09T07:31:03;18.60;65.70
70734;DHT22;58320;48.804;9.252;2023-05-09T07:33:30;18.80;64.70
70734;DHT22;58320;48.804;9.252;2023-05-09T07:36:00;18.80;64.60
70734;DHT22;58320;48.804;9.252;2023-05-09T07:38:26;18.70;64.30
70734;DHT22;58320;48.804;9.252;2023-05-09T07:40:52;18.50;65.70
70734;DHT22;58320;48.804;9.252;2023-05-09T07:43:18;18.70;65.00
70734;DHT22;58320;48.804;9.252;2023-05-09T07:45:44;18.70;64.30
70734;DHT22;58320;48.804;9.252;2023-05-09T07:48:10;18.60;62.60
70734;DHT22;58320;48.804;9.252;2023-05-09T07:50:36;18.50;63.40
70734;DHT22;58320;48.804;9.252;2023-05-09T07:53:02;18.60;63.20
70734;DHT22;58320;48.804;9.252;2023-05-09T07:55:28;18.80;63.40
70734;DHT22;58320;48.804;9.252;2023-05-09T07:57:54;19.10;60.80
70734;DHT22;58320;48.804;9.252;2023-05-09T08:00:19;19.00;61.20
70734;DHT22;58320;48.804;9.252;2023-05-09T08:02:51;19.20;60.40
70734;DHT22;58320;48.804;9.252;2023-05-09T08:05:17;19.10;60.40
70734;DHT22;58320;48.804;9.252;2023-05-09T08:07:43;19.10;60.90
70734;DHT22;58320;48.804;9.252;2023-05-09T08:10:09;19.10;59.80
70734;DHT22;58320;48.804;9.252;2023-05-09T08:12:35;19.00;60.50
70734;DHT22;58320;48.804;9.252;2023-05-09T08:15:01;19.20;59.70
70734;DHT22;58320;48.804;9.252;2023-05-09T08:17:27;19.20;60.10
70734;DHT22;58320;48.804;9.252;2023-05-09T08:19:53;19.20;60.50
70734;DHT22;58320;48.804;9.252;2023-05-09T08:22:19;19.40;59.80
70734;DHT22;58320;48.804;9.252;2023-05-09T08:24:45;19.60;60.50
70734;DHT22;58320;48.804;9.252;2023-05-09T08:27:14;19.60;60.10
70734;DHT22;58320;48.804;9.252;2023-05-09T08:29:40;19.50;60.90
70734;DHT22;58320;48.804;9.252;2023-05-09T08:32:07;19.40;61.20
70734;DHT22;58320;48.804;9.252;2023-05-09T08:34:33;19.10;63.10
70734;DHT22;58320;48.804;9.252;2023-05-09T08:37:03;19.00;62.30
70734;DHT22;58320;48.804;9.252;2023-05-09T08:39:29;19.10;63.60
70734;DHT22;58320;48.804;9.252;2023-05-09T08:41:59;19.30;61.80
70734;DHT22;58320;48.804;9.252;2023-05-09T08:44:28;19.50;61.80
70734;DHT22;58320;48.804;9.252;2023-05-09T08:46:58;19.80;61.30
70734;DHT22;58320;48.804;9.252;2023-05-09T08:49:25;20.00;61.50
70734;DHT22;58320;48.804;9.252;2023-05-09T08:51:51;20.30;62.70
70734;DHT22;58320;48.804;9.252;2023-05-09T08:54:18;20.30;60.30
70734;DHT22;58320;48.804;9.252;2023-05-09T08:56:43;20.50;59.20
70734;DHT22;58320;48.804;9.252;2023-05-09T08:59:09;20.50;58.60
70734;DHT22;58320;48.804;9.252;2023-05-09T09:01:35;20.70;59.10
70734;DHT22;58320;48.804;9.252;2023-05-09T09:04:10;20.80;59.20
70734;DHT22;58320;48.804;9.252;2023-05-09T09:06:36;20.80;59.40
70734;DHT22;58320;48.804;9.252;2023-05-09T09:09:06;21.20;58.00
70734;DHT22;58320;48.804;9.252;2023-05-09T09:11:35;21.70;57.40
70734;DHT22;58320;48.804;9.252;2023-05-09T09:14:11;22.00;55.80
70734;DHT22;58320;48.804;9.252;2023-05-09T09:16:40;21.80;55.20
70734;DHT22;58320;48.804;9.252;2023-05-09T09:19:12;21.60;56.00
70734;DHT22;58320;48.804;9.252;2023-05-09T09:21:40;21.30;57.50
70734;DHT22;58320;48.804;9.252;2023-05-09T09:24:07;21.40;56.60
70734;DHT22;58320;48.804;9.252;2023-05-09T09:26:36;21.30;57.20
70734;DHT22;58320;48.804;9.252;2023-05-09T09:29:10;21.60;56.40
70734;DHT22;58320;48.804;9.252;2023-05-09T09:31:36;21.70;54.90
70734;DHT22;58320;48.804;9.252;2023-05-09T09:34:02;22.20;54.90
70734;DHT22;58320;48.804;9.252;2023-05-09T09:36:29;22.20;52.80
70734;DHT22;58320;48.804;9.252;2023-05-09T09:39:00;22.30;54.00
70734;DHT22;58320;48.804;9.252;2023-05-09T09:41:38;22.60;52.10
70734;DHT22;58320;48.804;9.252;2023-05-09T09:44:08;22.60;52.90
70734;DHT22;58320;48.804;9.252;2023-05-09T09:46:49;22.70;51.70
70734;DHT22;58320;48.804;9.252;2023-05-09T09:49:17;23.10;52.10
70734;DHT22;58320;48.804;9.252;2023-05-09T09:51:44;23.00;51.40
70734;DHT22;58320;48.804;9.252;2023-05-09T09:54:14;22.90;52.70
70734;DHT22;58320;48.804;9.252;2023-05-09T09:56:50;22.80;52.20
70734;DHT22;58320;48.804;9.252;2023-05-09T09:59:20;22.60;53.20
70734;DHT22;58320;48.804;9.252;2023-05-09T10:04:34;22.30;53.90
70734;DHT22;58320;48.804;9.252;2023-05-09T10:07:02;22.80;54.40
70734;DHT22;58320;48.804;9.252;2023-05-09T10:09:29;23.20;52.90
70734;DHT22;58320;48.804;9.252;2023-05-09T10:11:56;23.60;52.30
70734;DHT22;58320;48.804;9.252;2023-05-09T10:14:26;23.10;52.60
70734;DHT22;58320;48.804;9.252;2023-05-09T10:16:56;22.60;52.70
70734;DHT22;58320;48.804;9.252;2023-05-09T10:19:25;22.40;53.50
70734;DHT22;58320;48.804;9.252;2023-05-09T10:21:53;22.80;54.20
70734;DHT22;58320;48.804;9.252;2023-05-09T10:27:05;23.60;51.60
70734;DHT22;58320;48.804;9.252;2023-05-09T10:29:37;23.60;51.00
70734;DHT22;58320;48.804;9.252;2023-05-09T10:32:17;23.80;51.30
70734;DHT22;58320;48.804;9.252;2023-05-09T10:35:09;24.40;51.00
70734;DHT22;58320;48.804;9.252;2023-05-09T10:37:38;24.60;50.80
70734;DHT22;58320;48.804;9.252;2023-05-09T10:40:05;24.50;48.90
70734;DHT22;58320;48.804;9.252;2023-05-09T10:42:32;24.20;48.30
70734;DHT22;58320;48.804;9.252;2023-05-09T10:44:58;23.90;49.30
70734;DHT22;58320;48.804;9.252;2023-05-09T10:47:28;23.90;50.50
70734;DHT22;58320;48.804;9.252;2023-05-09T10:49:54;24.00;51.10
70734;DHT22;58320;48.804;9.252;2023-05-09T10:52:21;24.00;50.90
70734;DHT22;58320;48.804;9.252;2023-05-09T10:54:58;24.50;49.60
70734;DHT22;58320;48.804;9.252;2023-05-09T10:57:29;24.40;48.40
70734;DHT22;58320;48.804;9.252;2023-05-09T10:59:56;24.20;48.40
70734;DHT22;58320;48.804;9.252;2023-05-09T11:02:23;24.10;48.80
70734;DHT22;58320;48.804;9.252;2023-05-09T11:05:18;24.60;49.40
70734;DHT22;58320;48.804;9.252;2023-05-09T11:07:44;25.10;47.80
70734;DHT22;58320;48.804;9.252;2023-05-09T11:10:17;25.10;47.50
70734;DHT22;58320;48.804;9.252;2023-05-09T11:12:55;25.10;48.60
70734;DHT22;58320;48.804;9.252;2023-05-09T11:15:22;25.20;48.50
70734;DHT22;58320;48.804;9.252;2023-05-09T11:18:08;24.70;47.80
70734;DHT22;58320;48.804;9.252;2023-05-09T11:20:35;25.00;47.70
70734;DHT22;58320;48.804;9.252;2023-05-09T11:23:07;25.20;47.10
70734;DHT22;58320;48.804;9.252;2023-05-09T11:25:38;25.30;47.20
70734;DHT22;58320;48.804;9.252;2023-05-09T11:28:04;24.90;47.50
70734;DHT22;58320;48.804;9.252;2023-05-09T11:30:41;24.90;47.30
70734;DHT22;58320;48.804;9.252;2023-05-09T11:33:26;25.80;46.00
70734;DHT22;58320;48.804;9.252;2023-05-09T11:36:28;26.40;45.70
70734;DHT22;58320;48.804;9.252;2023-05-09T11:39:01;25.70;47.10
70734;DHT22;58320;48.804;9.252;2023-05-09T11:41:28;25.70;47.90
70734;DHT22;58320;48.804;9.252;2023-05-09T11:43:54;26.30;46.10
70734;DHT22;58320;48.804;9.252;2023-05-09T11:46:21;27.50;43.90
70734;DHT22;58320;48.804;9.252;2023-05-09T11:48:48;28.50;42.70
70734;DHT22;58320;48.804;9.252;2023-05-09T11:51:17;29.20;41.10
70734;DHT22;58320;48.804;9.252;2023-05-09T11:53:45;29.80;40.40
70734;DHT22;58320;48.804;9.252;2023-05-09T11:56:14;29.40;41.10
70734;DHT22;58320;48.804;9.252;2023-05-09T11:58:41;29.30;40.60
70734;DHT22;58320;48.804;9.252;2023-05-09T12:01:09;29.00;40.30
70734;DHT22;58320;48.804;9.252;2023-05-09T12:03:42;27.30;43.70
70734;DHT22;58320;48.804;9.252;2023-05-09T12:06:08;27.30;43.70
70734;DHT22;58320;48.804;9.252;2023-05-09T12:08:39;27.30;43.40
70734;DHT22;58320;48.804;9.252;2023-05-09T12:11:08;27.70;43.10
70734;DHT22;58320;48.804;9.252;2023-05-09T12:13:34;28.30;42.80
70734;DHT22;58320;48.804;9.252;2023-05-09T12:16:03;29.00;40.80
70734;DHT22;58320;48.804;9.252;2023-05-09T12:18:29;28.00;42.20
70734;DHT22;58320;48.804;9.252;2023-05-09T12:20:55;26.60;44.40
70734;DHT22;58320;48.804;9.252;2023-05-09T12:23:21;26.40;46.10
70734;DHT22;58320;48.804;9.252;2023-05-09T12:25:54;26.70;46.30
70734;DHT22;58320;48.804;9.252;2023-05-09T12:28:22;27.20;44.60
70734;DHT22;58320;48.804;9.252;2023-05-09T12:30:49;27.50;43.90
70734;DHT22;58320;48.804;9.252;2023-05-09T12:33:16;27.20;43.80
70734;DHT22;58320;48.804;9.252;2023-05-09T12:35:48;27.40;44.40
70734;DHT22;58320;48.804;9.252;2023-05-09T12:38:20;28.20;42.60
70734;DHT22;58320;48.804;9.252;2023-05-09T12:40:48;28.00;43.40
70734;DHT22;58320;48.804;9.252;2023-05-09T12:43:16;28.00;43.30
70734;DHT22;58320;48.804;9.252;2023-05-09T12:45:41;28.10;43.40
70734;DHT22;58320;48.804;9.252;2023-05-09T12:48:08;27.60;43.00
70734;DHT22;58320;48.804;9.252;2023-05-09T12:50:35;27.20;43.50
70734;DHT22;58320;48.804;9.252;2023-05-09T12:53:02;26.80;44.10
70734;DHT22;58320;48.804;9.252;2023-05-09T12:55:38;26.90;43.90
70734;DHT22;58320;48.804;9.252;2023-05-09T12:58:05;26.70;44.20
70734;DHT22;58320;48.804;9.252;2023-05-09T13:00:53;27.10;43.70
70734;DHT22;58320;48.804;9.252;2023-05-09T13:03:26;28.00;42.10
70734;DHT22;58320;48.804;9.252;2023-05-09T13:05:59;28.40;40.70
70734;DHT22;58320;48.804;9.252;2023-05-09T13:08:26;27.80;41.10
70734;DHT22;58320;48.804;9.252;2023-05-09T13:10:53;27.80;42.20
70734;DHT22;58320;48.804;9.252;2023-05-09T13:13:19;27.70;41.70
70734;DHT22;58320;48.804;9.252;2023-05-09T13:15:47;28.40;42.20
70734;DHT22;58320;48.804;9.252;2023-05-09T13:18:13;29.00;40.20
70734;DHT22;58320;48.804;9.252;2023-05-09T13:20:38;28.30;40.40
70734;DHT22;58320;48.804;9.252;2023-05-09T13:23:04;27.40;41.90
70734;DHT22;58320;48.804;9.252;2023-05-09T13:25:30;27.40;41.80
70734;DHT22;58320;48.804;9.252;2023-05-09T13:27:56;27.50;42.90
70734;DHT22;58320;48.804;9.252;2023-05-09T13:30:22;27.40;42.00
70734;DHT22;58320;48.804;9.252;2023-05-09T13:32:47;27.00;42.30
70734;DHT22;58320;48.804;9.252;2023-05-09T13:35:14;26.30;42.70
70734;DHT22;58320;48.804;9.252;2023-05-09T13:37:40;25.20;44.50
70734;DHT22;58320;48.804;9.252;2023-05-09T13:40:07;24.80;44.60
70734;DHT22;58320;48.804;9.252;2023-05-09T13:42:33;24.50;45.50
70734;DHT22;58320;48.804;9.252;2023-05-09T13:44:59;24.20;46.50
70734;DHT22;58320;48.804;9.252;2023-05-09T13:47:25;24.00;47.40
70734;DHT22;58320;48.804;9.252;2023-05-09T13:49:51;24.00;47.30
70734;DHT22;58320;48.804;9.252;2023-05-09T13:52:17;23.70;47.20
70734;DHT22;58320;48.804;9.252;2023-05-09T13:54:43;23.60;48.10
70734;DHT22;58320;48.804;9.252;2023-05-09T13:57:09;23.60;48.20
70734;DHT22;58320;48.804;9.252;2023-05-09T13:59:36;23.60;48.50
70734;DHT22;58320;48.804;9.252;2023-05-09T14:02:02;23.80;48.00
70734;DHT22;58320;48.804;9.252;2023-05-09T14:04:29;24.10;46.20
70734;DHT22;58320;48.804;9.252;2023-05-09T14:06:57;24.50;46.00
70734;DHT22;58320;48.804;9.252;2023-05-09T14:09:24;25.00;45.20
70734;DHT22;58320;48.804;9.252;2023-05-09T14:11:51;25.00;44.20
70734;DHT22;58320;48.804;9.252;2023-05-09T14:14:18;25.20;44.50
70734;DHT22;58320;48.804;9.252;2023-05-09T14:16:46;25.00;44.90
70734;DHT22;58320;48.804;9.252;2023-05-09T14:19:12;24.50;45.40
70734;DHT22;58320;48.804;9.252;2023-05-09T14:21:40;24.10;46.10
70734;DHT22;58320;48.804;9.252;2023-05-09T14:24:09;23.80;46.50
70734;DHT22;58320;48.804;9.252;2023-05-09T14:26:36;23.40;47.10
70734;DHT22;58320;48.804;9.252;2023-05-09T14:29:03;23.20;48.30
70734;DHT22;58320;48.804;9.252;2023-05-09T14:31:30;23.10;48.30
70734;DHT22;58320;48.804;9.252;2023-05-09T14:33:56;22.80;49.40
70734;DHT22;58320;48.804;9.252;2023-05-09T14:36:25;22.70;50.10
70734;DHT22;58320;48.804;9.252;2023-05-09T14:38:52;22.60;50.60
70734;DHT22;58320;48.804;9.252;2023-05-09T14:41:18;22.60;51.80
70734;DHT22;58320;48.804;9.252;2023-05-09T14:43:43;22.50;53.30
70734;DHT22;58320;48.804;9.252;2023-05-09T14:46:09;22.00;54.20
70734;DHT22;58320;48.804;9.252;2023-05-09T14:48:35;21.80;55.90
70734;DHT22;58320;48.804;9.252;2023-05-09T14:51:01;21.50;58.80
70734;DHT22;58320;48.804;9.252;2023-05-09T14:53:27;20.90;58.80
70734;DHT22;58320;48.804;9.252;2023-05-09T14:55:54;20.60;58.50
70734;DHT22;58320;48.804;9.252;2023-05-09T14:58:21;20.40;58.50
70734;DHT22;58320;48.804;9.252;2023-05-09T15:00:47;20.10;58.30
70734;DHT22;58320;48.804;9.252;2023-05-09T15:03:14;19.80;64.40
70734;DHT22;58320;48.804;9.252;2023-05-09T15:05:40;19.50;70.20
70734;DHT22;58320;48.804;9.252;2023-05-09T15:08:06;19.50;69.80
70734;DHT22;58320;48.804;9.252;2023-05-09T15:10:32;19.80;73.70
70734;DHT22;58320;48.804;9.252;2023-05-09T15:12:59;20.30;70.30
70734;DHT22;58320;48.804;9.252;2023-05-09T15:15:25;21.00;68.30
70734;DHT22;58320;48.804;9.252;2023-05-09T15:17:52;21.70;65.40
70734;DHT22;58320;48.804;9.252;2023-05-09T15:20:18;22.30;62.60
70734;DHT22;58320;48.804;9.252;2023-05-09T15:22:45;22.90;61.20
70734;DHT22;58320;48.804;9.252;2023-05-09T15:25:14;23.10;60.30
70734;DHT22;58320;48.804;9.252;2023-05-09T15:27:40;23.20;61.80
70734;DHT22;58320;48.804;9.252;2023-05-09T15:30:07;23.30;62.60
70734;DHT22;58320;48.804;9.252;2023-05-09T15:32:33;23.40;62.80
70734;DHT22;58320;48.804;9.252;2023-05-09T15:35:01;23.40;60.40
70734;DHT22;58320;48.804;9.252;2023-05-09T15:37:27;23.50;60.10
70734;DHT22;58320;48.804;9.252;2023-05-09T15:39:53;23.60;59.80
70734;DHT22;58320;48.804;9.252;2023-05-09T15:42:18;23.50;59.10
70734;DHT22;58320;48.804;9.252;2023-05-09T15:44:44;23.30;59.30
70734;DHT22;58320;48.804;9.252;2023-05-09T15:47:11;23.20;59.80
70734;DHT22;58320;48.804;9.252;2023-05-09T15:49:37;23.10;59.00